SJO weather

Juan Santamaria International Airport
San Jose, Alajuela, Costa Rica

Public forecast

Using degrees Celsius for public forecast. Weather courtesy of forecast.io.

METAR (pilot weather report)

Retrieved 2019/05/24 02:00 UTC (37 minutes ago):

MROC 240200Z 25004KT 9999 -RA FEW005 SCT030 BKN100 22/21 A3000 NOSIG

TAF (pilot weather forecast)

Forecast is more than 12 hours old.

Retrieved 2019/05/23 00:42 UTC (1 day ago):

TAF MROC 232300Z 2400/2424 32005KT 9999 SCT030 BKN100 TX28/2418Z TN19/2410Z TEMPO 2400/2403 VRB02KT 5000 RA BR SCT002 BKN020 BECMG 2403/2405 07005KT FEW030 SCT150 BECMG 2414/2416 25010KT TEMPO 2420/2424 RA BKN030